Time;durP1;ratioP1;P1;durP2;ratioP2;P2;SDS_P1;SDS_P2;PMS_P1;PMS_P2;Temp;Humidity;BMP_temperature;BMP_pressure;BME280_temperature;BME280_humidity;BME280_pressure;Samples;Min_cycle;Max_cycle;Signal;HPM_P1;HPM_P2
2022/08/01 00:02:21;;;;;;;32.65;25.83;;;19.00;99.90;;;-144.05;94.64;125687.94;4966888;29;20035;-90
2022/08/01 00:04:47;;;;;;;33.30;25.15;;;19.00;99.90;;;-144.05;95.09;125687.94;4948706;29;20027;-92
2022/08/01 00:07:13;;;;;;;32.05;24.40;;;19.00;99.90;;;-144.05;94.99;125687.94;4964004;29;20062;-89
2022/08/01 00:10:03;;;;;;;36.85;27.17;;;19.00;99.90;;;-144.05;95.15;125687.94;4971665;29;20039;-90
2022/08/01 00:12:50;;;;;;;40.70;28.02;;;19.00;99.90;;;-144.05;95.56;125687.94;4972609;28;20050;-89
2022/08/01 00:15:18;;;;;;;36.25;27.80;;;19.00;99.90;;;-144.05;95.18;125687.94;4949007;28;20043;-94
2022/08/01 00:17:48;;;;;;;36.55;28.40;;;19.00;99.90;;;-144.05;95.30;125687.94;4949528;29;20397;-91
2022/08/01 00:20:48;;;;;;;36.60;30.10;;;19.00;99.90;;;-144.05;95.66;125687.94;4965016;29;20042;-92
2022/08/01 00:23:31;;;;;;;;;;;;;;;;;;;;;
2022/08/01 00:26:00;;;;;;;38.65;28.15;;;18.90;99.90;;;-144.05;95.56;125687.94;4964426;29;20114;-92
2022/08/01 00:28:27;;;;;;;34.70;27.08;;;18.90;99.90;;;-144.05;95.58;125687.94;4962119;28;20053;-92
2022/08/01 00:30:53;;;;;;;36.60;28.65;;;18.90;99.90;;;-144.05;95.70;125687.94;4961444;28;20098;-91
2022/08/01 00:33:30;;;;;;;38.15;27.55;;;18.90;99.90;;;-144.05;95.63;125687.94;4960588;29;20111;-90
2022/08/01 00:35:56;;;;;;;38.03;29.20;;;18.90;99.90;;;-144.05;95.62;125687.94;4960995;29;20114;-91
2022/08/01 00:38:30;;;;;;;34.90;29.45;;;18.80;99.90;;;-144.05;96.04;125687.94;4961205;28;20458;-90
2022/08/01 00:40:59;;;;;;;33.00;26.85;;;18.80;99.90;;;-144.05;95.80;125687.94;4962508;29;20117;-91
2022/08/01 00:43:25;;;;;;;37.22;28.95;;;18.80;99.90;;;-144.05;95.75;125687.94;4961633;29;20031;-89
2022/08/01 00:45:51;;;;;;;34.80;28.67;;;18.90;99.90;;;-144.05;95.85;125687.94;4947030;29;20074;-91
2022/08/01 00:48:19;;;;;;;36.15;26.58;;;18.80;99.90;;;-144.05;95.73;125687.94;4962188;29;20039;-90
2022/08/01 00:50:46;;;;;;;35.22;28.17;;;18.80;99.90;;;-144.05;95.72;125687.94;4947601;29;20055;-92
2022/08/01 00:53:12;;;;;;;34.47;28.98;;;18.80;99.90;;;-144.05;95.91;125687.94;4959610;29;20027;-90
2022/08/01 00:55:38;;;;;;;36.95;28.70;;;18.90;99.90;;;-144.05;95.96;125687.94;4960630;29;20031;-90
2022/08/01 00:58:05;;;;;;;35.92;28.30;;;18.90;99.90;;;-144.05;95.75;125687.94;4959568;29;20037;-90
2022/08/01 01:00:36;;;;;;;37.78;28.63;;;18.80;99.90;;;-144.05;96.09;125687.94;4960305;29;20027;-91
2022/08/01 01:03:03;;;;;;;35.58;29.25;;;18.90;99.90;;;-144.05;96.03;125687.94;4944232;29;20453;-88
2022/08/01 01:05:43;;;;;;;39.65;29.70;;;18.80;99.90;;;-144.05;95.75;125687.94;4963061;29;20031;-90
2022/08/01 01:08:26;;;;;;;36.33;28.45;;;18.80;99.90;;;-144.05;96.09;125687.94;4961903;28;20450;-91
2022/08/01 01:11:10;;;;;;;44.15;32.42;;;18.80;99.90;;;-144.05;95.96;125687.94;4960916;28;20059;-92
2022/08/01 01:14:13;;;;;;;42.15;31.88;;;18.80;99.90;;;-144.05;96.13;125687.94;4964983;29;20028;-90
2022/08/01 01:16:45;;;;;;;39.50;31.40;;;18.80;99.90;;;-144.05;96.08;125687.94;4947106;28;20038;-92
2022/08/01 01:19:24;;;;;;;45.60;35.80;;;18.80;99.90;;;-144.05;95.95;125687.94;4962999;29;20178;-90
2022/08/01 01:22:33;;;;;;;38.35;29.95;;;18.70;99.90;;;-144.05;96.15;125687.94;4948711;29;20082;-91
2022/08/01 01:25:48;;;;;;;45.10;34.65;;;18.80;99.90;;;-144.05;96.41;125687.94;4962215;29;20066;-91
2022/08/01 01:29:26;;;;;;;40.92;31.33;;;18.80;99.90;;;-144.05;96.00;125687.94;4961680;28;20046;-91
2022/08/01 01:32:15;;;;;;;40.38;31.35;;;18.80;99.90;;;-144.05;96.15;125687.94;4934855;28;20130;-89
2022/08/01 01:34:47;;;;;;;40.58;32.33;;;18.70;99.90;;;-144.05;95.97;125687.94;4960827;29;20294;-89
2022/08/01 01:37:25;;;;;;;48.95;34.75;;;18.70;99.90;;;-144.05;96.11;125687.94;4953314;28;20082;-90
2022/08/01 01:39:57;;;;;;;38.90;31.75;;;18.70;99.90;;;-144.05;96.07;125687.94;4946481;29;20027;-90
2022/08/01 01:42:32;;;;;;;50.20;36.45;;;18.70;99.90;;;-144.05;96.44;125687.94;4946833;29;20347;-91
2022/08/01 01:45:04;;;;;;;52.40;38.60;;;18.70;99.90;;;-144.05;96.35;125687.94;4947513;29;20489;-89
2022/08/01 01:47:38;;;;;;;54.22;39.05;;;18.70;99.90;;;-144.05;96.46;125687.94;4947047;29;20031;-90
2022/08/01 01:50:13;;;;;;;48.30;37.70;;;18.70;99.90;;;-144.05;96.32;125687.94;4931836;29;20385;-91
2022/08/01 01:53:14;;;;;;;45.55;34.95;;;18.70;99.90;;;-144.05;96.21;125687.94;4964490;28;20071;-89
2022/08/01 01:55:47;;;;;;;51.85;38.95;;;18.70;99.90;;;-144.05;96.28;125687.94;4963655;28;20031;-90
2022/08/01 01:58:17;;;;;;;48.90;36.58;;;18.70;99.90;;;-144.05;96.22;125687.94;4947280;29;20031;-90
2022/08/01 02:00:48;;;;;;;49.97;37.90;;;18.80;99.90;;;-144.05;96.03;125687.94;4963075;29;20062;-91
2022/08/01 02:03:21;;;;;;;51.63;38.80;;;18.70;99.90;;;-144.05;95.98;125687.94;4946617;29;20031;-90
2022/08/01 02:06:15;;;;;;;49.10;35.80;;;18.70;99.90;;;-144.05;96.10;125687.94;4947049;29;20118;-90
2022/08/01 02:08:54;;;;;;;45.25;34.22;;;18.60;99.90;;;-144.05;95.85;125687.94;4962115;28;20035;-92
2022/08/01 02:11:21;;;;;;;47.58;36.38;;;18.70;99.90;;;-144.05;96.23;125687.94;4962191;28;20035;-88
2022/08/01 02:14:03;;;;;;;43.90;32.92;;;18.70;99.90;;;-144.05;96.18;125687.94;4964006;29;20212;-90
2022/08/01 02:17:08;;;;;;;42.63;33.60;;;18.70;99.90;;;-144.05;96.10;125687.94;4980200;28;20023;-89
2022/08/01 02:19:38;;;;;;;43.20;30.35;;;18.70;99.90;;;-144.05;95.83;125687.94;4963864;29;20057;-90
2022/08/01 02:22:33;;;;;;;40.65;29.95;;;18.70;99.90;;;-144.05;95.68;125687.94;4980697;28;20031;-90
2022/08/01 02:29:28;;;;;;;32.10;25.67;;;18.70;99.90;;;-144.05;95.76;125687.94;4963006;28;20050;-90
2022/08/01 02:32:33;;;;;;;34.55;24.98;;;18.70;99.90;;;-144.05;95.67;125687.94;4977993;28;20095;-92
2022/08/01 02:35:09;;;;;;;40.30;29.60;;;18.70;99.90;;;-144.05;95.58;125687.94;4963435;28;20122;-89
2022/08/01 04:18:44;;;;;;;26.58;19.35;;;18.50;99.90;;;-144.05;95.72;125687.94;4961745;28;20469;-90
2022/08/01 04:21:13;;;;;;;27.15;18.88;;;18.40;99.90;;;-144.05;95.88;125687.94;4961928;29;20099;-89
2022/08/01 04:23:44;;;;;;;27.02;18.27;;;18.40;99.90;;;-144.05;95.88;125687.94;4961762;29;20103;-91
2022/08/01 04:26:15;;;;;;;29.40;20.77;;;18.50;99.90;;;-144.05;95.70;125687.94;4944412;29;20038;-89
2022/08/01 04:28:45;;;;;;;25.45;17.60;;;18.40;99.90;;;-144.05;95.73;125687.94;4959505;28;20034;-87
2022/08/01 04:31:16;;;;;;;26.98;18.15;;;18.40;99.90;;;-144.05;95.72;125687.94;4960923;29;20038;-89
2022/08/01 04:33:51;;;;;;;26.80;18.70;;;18.50;99.90;;;-144.05;95.67;125687.94;4946013;29;20028;-88
2022/08/01 04:36:23;;;;;;;30.67;21.42;;;18.40;99.90;;;-144.05;95.41;125687.94;4943680;29;20246;-91
2022/08/01 04:38:59;;;;;;;24.08;17.77;;;18.40;99.90;;;-144.05;95.11;125687.94;4944423;29;20117;-90
2022/08/01 04:41:27;;;;;;;29.85;19.52;;;18.40;99.90;;;-144.05;95.23;125687.94;4960411;29;20062;-90
2022/08/01 04:43:54;;;;;;;28.77;18.17;;;18.40;99.90;;;-144.05;95.15;125687.94;4944499;29;20031;-91
2022/08/01 04:46:22;;;;;;;26.98;17.83;;;18.40;99.90;;;-144.05;95.17;125687.94;4942935;29;20043;-90
2022/08/01 04:48:50;;;;;;;26.30;16.00;;;18.40;99.90;;;-144.05;95.00;125687.94;4958620;29;20128;-91
2022/08/01 04:51:18;;;;;;;22.92;16.38;;;18.40;99.90;;;-144.05;94.83;125687.94;4960361;29;20043;-89
2022/08/01 04:53:45;;;;;;;28.90;17.60;;;18.40;99.90;;;-144.05;94.55;125687.94;4942981;29;20023;-90
2022/08/01 04:56:12;;;;;;;23.85;16.02;;;18.40;99.90;;;-144.05;94.93;125687.94;4959572;29;20031;-89
2022/08/01 04:58:43;;;;;;;20.20;13.95;;;18.50;99.90;;;-144.05;94.82;125687.94;4943686;29;20070;-92
2022/08/01 05:01:11;;;;;;;22.42;14.68;;;18.50;99.90;;;-144.05;94.82;125687.94;4958877;29;20094;-90
2022/08/01 05:03:57;;;;;;;23.83;15.27;;;18.60;99.90;;;-144.05;94.66;125687.94;4944013;29;20035;-87
2022/08/01 05:06:26;;;;;;;23.40;14.45;;;18.60;99.90;;;-144.05;94.47;125687.94;4941206;29;20053;-90
2022/08/01 05:09:05;;;;;;;28.55;17.17;;;18.70;99.90;;;-144.05;94.05;125687.94;4943640;29;20035;-91
2022/08/01 05:11:33;;;;;;;22.17;15.18;;;18.70;99.90;;;-144.05;93.91;125687.94;4943022;29;20032;-90
2022/08/01 05:14:00;;;;;;;28.92;17.27;;;18.70;99.90;;;-144.05;93.63;125687.94;4943437;29;20039;-89
2022/08/01 05:16:32;;;;;;;25.85;14.05;;;18.80;99.90;;;-144.05;93.22;125687.94;4944048;29;20027;-87
2022/08/01 05:18:58;;;;;;;24.45;13.77;;;18.80;99.90;;;-144.05;93.22;125687.94;4945112;29;20031;-89
2022/08/01 05:21:29;;;;;;;19.80;13.15;;;18.90;99.90;;;-144.05;92.91;125687.94;4945393;29;20035;-86
2022/08/01 05:23:55;;;;;;;20.38;13.65;;;18.90;99.90;;;-144.05;92.66;125687.94;4960201;29;20031;-90
2022/08/01 05:26:29;;;;;;;20.30;13.82;;;18.90;99.90;;;-144.05;92.55;125687.94;4944976;29;20031;-91
2022/08/01 05:28:54;;;;;;;25.98;13.95;;;18.90;99.90;;;-144.05;92.24;125687.94;4959276;29;20031;-90
2022/08/01 05:31:20;;;;;;;23.45;13.77;;;19.00;99.90;;;-144.05;92.18;125687.94;4943902;29;20027;-91
2022/08/01 05:33:49;;;;;;;21.90;12.13;;;18.90;99.90;;;-144.05;91.93;125687.94;4962556;29;20031;-90
2022/08/01 05:36:15;;;;;;;19.05;12.50;;;18.90;99.90;;;-144.05;91.75;125687.94;4944294;29;20114;-89
2022/08/01 05:38:42;;;;;;;16.08;10.80;;;18.90;99.90;;;-144.05;91.64;125687.94;4959702;29;20539;-90
2022/08/01 05:41:10;;;;;;;16.38;9.60;;;18.90;99.90;;;-144.05;91.55;125687.94;4959026;29;20023;-91
2022/08/01 05:43:36;;;;;;;21.48;14.23;;;18.90;99.90;;;-144.05;91.25;125687.94;4959248;29;20130;-88
2022/08/01 05:46:02;;;;;;;25.77;14.07;;;18.90;99.90;;;-144.05;91.35;125687.94;4960638;29;20111;-90
2022/08/01 05:48:28;;;;;;;25.55;14.73;;;18.90;99.90;;;-144.05;91.12;125687.94;4943492;29;20122;-90
2022/08/01 05:50:54;;;;;;;29.92;17.13;;;18.90;99.90;;;-144.05;91.05;125687.94;4961742;29;20046;-89
2022/08/01 05:53:20;;;;;;;22.55;14.73;;;18.90;99.90;;;-144.05;90.72;125687.94;4961979;29;20032;-88
2022/08/01 05:55:46;;;;;;;25.92;14.70;;;18.90;99.90;;;-144.05;90.51;125687.94;4946603;29;20086;-91
2022/08/01 05:58:15;;;;;;;28.17;16.75;;;18.90;99.90;;;-144.05;89.98;125687.94;4962110;28;20028;-87
2022/08/01 06:00:40;;;;;;;25.05;15.30;;;18.90;99.90;;;-144.05;90.10;125687.94;4946362;29;20027;-86
2022/08/01 06:03:06;;;;;;;21.98;14.50;;;19.00;99.90;;;-144.05;90.04;125687.94;4950699;29;20058;-86
2022/08/01 06:05:32;;;;;;;19.85;14.32;;;18.90;99.90;;;-144.05;89.48;125687.94;4958708;29;20047;-88
2022/08/01 06:08:07;;;;;;;18.10;12.73;;;18.90;99.90;;;-144.05;89.52;125687.94;4972017;28;20348;-88
2022/08/01 06:10:34;;;;;;;20.88;13.40;;;18.90;99.90;;;-144.05;89.76;125687.94;4968277;29;20061;-92
2022/08/01 06:13:02;;;;;;;24.63;14.55;;;18.90;99.90;;;-144.05;90.21;125687.94;4950781;29;20042;-91
2022/08/01 06:15:30;;;;;;;21.27;14.45;;;18.90;99.90;;;-144.05;90.11;125687.94;4966876;28;20498;-89
2022/08/01 06:17:56;;;;;;;22.05;14.85;;;19.00;99.90;;;-144.05;89.79;125687.94;4980288;28;20050;-86
2022/08/01 06:20:22;;;;;;;22.25;13.95;;;18.90;99.90;;;-144.05;89.70;125687.94;4980340;28;20073;-87
2022/08/01 06:22:51;;;;;;;22.60;15.20;;;18.90;99.90;;;-144.05;89.64;125687.94;4975944;28;20055;-89
2022/08/01 06:25:18;;;;;;;18.00;13.38;;;19.00;99.90;;;-144.05;89.15;125687.94;4963784;29;20392;-88
2022/08/01 06:27:44;;;;;;;20.02;12.80;;;19.00;99.90;;;-144.05;88.40;125687.94;4961715;28;20023;-88
2022/08/01 06:30:16;;;;;;;16.58;11.77;;;19.00;99.90;;;-144.05;88.61;125687.94;4961635;29;20079;-87
2022/08/01 06:34:04;;;;;;;15.43;10.57;;;19.10;99.90;;;-144.05;88.07;125687.94;4947408;29;20039;-89
2022/08/01 06:36:50;;;;;;;16.25;12.35;;;19.10;99.90;;;-144.05;87.63;125687.94;4931123;29;20039;-88
2022/08/01 06:39:16;;;;;;;18.73;11.77;;;19.20;99.90;;;-144.05;87.52;125687.94;4943856;29;20134;-89
2022/08/01 06:41:42;;;;;;;16.65;11.98;;;19.30;99.90;;;-144.05;86.74;125687.94;4946150;29;20054;-87
2022/08/01 06:44:08;;;;;;;14.98;10.60;;;19.30;99.90;;;-144.05;86.90;125687.94;4962121;29;20055;-90
2022/08/01 06:46:35;;;;;;;13.38;9.98;;;19.40;99.90;;;-144.05;85.84;125687.94;4961593;29;20489;-86
2022/08/01 06:49:01;;;;;;;13.93;9.98;;;19.60;99.90;;;-144.05;85.11;125687.94;4963425;28;20038;-88
2022/08/01 06:51:26;;;;;;;15.70;9.10;;;19.70;99.90;;;-144.05;84.04;125687.94;4961263;29;20027;-90
2022/08/01 06:53:53;;;;;;;9.95;7.57;;;20.00;99.90;;;-144.05;82.77;125687.94;4961531;29;20429;-89
2022/08/01 06:56:19;;;;;;;11.05;8.38;;;20.20;99.90;;;-144.05;81.56;125687.94;4945216;29;20501;-88
2022/08/01 06:58:45;;;;;;;13.80;9.63;;;20.40;99.90;;;-144.05;80.72;125687.94;4945997;29;20054;-88
2022/08/01 07:01:11;;;;;;;10.90;8.50;;;20.50;99.90;;;-144.05;79.82;125687.94;4961421;29;20042;-87
2022/08/01 07:03:38;;;;;;;10.82;8.43;;;20.60;99.90;;;-144.05;78.26;125687.94;4962310;29;20043;-89
2022/08/01 07:06:04;;;;;;;10.35;7.70;;;20.50;99.90;;;-144.05;78.56;125687.94;4962007;29;20035;-87
2022/08/01 07:08:30;;;;;;;12.55;8.43;;;20.40;99.90;;;-144.05;78.67;125687.94;4961256;28;20031;-89
2022/08/01 07:10:59;;;;;;;15.18;9.32;;;20.40;99.90;;;-144.05;78.56;125687.94;4960865;29;20034;-87
2022/08/01 07:13:26;;;;;;;15.70;9.23;;;20.40;99.90;;;-144.05;76.60;125687.94;4944933;29;20027;-86
2022/08/01 07:15:53;;;;;;;11.57;9.00;;;20.40;99.90;;;-144.05;76.50;125687.94;4959853;29;20027;-88
2022/08/01 07:18:20;;;;;;;11.90;8.02;;;20.40;99.90;;;-144.05;76.58;125687.94;4960284;28;20178;-87
2022/08/01 07:20:46;;;;;;;11.52;8.50;;;20.60;99.90;;;-144.05;75.64;125687.94;4945109;29;20078;-87
2022/08/01 07:23:13;;;;;;;11.52;7.93;;;20.70;99.90;;;-144.05;75.48;125687.94;4961973;29;20504;-89
2022/08/01 07:25:39;;;;;;;9.80;7.80;;;21.00;99.90;;;-144.05;74.52;125687.94;4962446;29;20059;-87
2022/08/01 07:28:05;;;;;;;9.20;7.22;;;21.20;99.90;;;-144.05;74.04;125687.94;4944539;29;20035;-87
2022/08/01 07:30:31;;;;;;;13.55;9.52;;;21.50;99.90;;;-144.05;72.11;125687.94;4960692;29;20035;-90
2022/08/01 07:32:57;;;;;;;13.02;9.65;;;21.80;99.90;;;-144.05;69.80;125687.94;4960269;29;20184;-88
2022/08/01 07:35:23;;;;;;;11.70;9.27;;;22.20;99.90;;;-144.05;67.52;125687.94;4961227;29;20055;-87
2022/08/01 07:37:50;;;;;;;12.23;8.77;;;22.80;99.90;;;-144.05;64.28;125687.94;4960581;28;20146;-88
2022/08/01 07:40:18;;;;;;;9.65;7.97;;;23.00;99.90;;;-144.05;63.70;125687.94;4962648;29;20035;-89
2022/08/01 07:42:46;;;;;;;12.00;8.88;;;23.10;99.90;;;-144.05;63.07;125687.94;4961964;29;20444;-88
2022/08/01 07:45:13;;;;;;;9.52;8.30;;;23.00;99.90;;;-144.05;64.36;125687.94;4945667;29;20031;-89
2022/08/01 07:47:39;;;;;;;11.88;9.48;;;23.20;99.90;;;-144.05;62.86;125687.94;4961621;28;20027;-89
2022/08/01 07:50:06;;;;;;;10.75;9.38;;;23.10;99.90;;;-144.05;63.17;125687.94;4962490;29;20496;-91
2022/08/01 07:52:32;;;;;;;10.23;9.23;;;23.30;99.90;;;-144.05;62.21;125687.94;4962156;29;20035;-88
2022/08/01 07:54:58;;;;;;;11.23;9.00;;;23.50;99.90;;;-144.05;60.60;125687.94;4962598;29;20475;-90
2022/08/01 07:57:25;;;;;;;10.52;9.18;;;23.40;99.90;;;-144.05;60.29;125687.94;4964046;28;20054;-89
2022/08/01 07:59:52;;;;;;;10.80;8.05;;;23.80;99.90;;;-144.05;59.38;125687.94;4962696;29;20125;-89
2022/08/01 08:02:18;;;;;;;10.45;7.68;;;23.50;99.90;;;-144.05;60.43;125687.94;4964273;29;20035;-88
2022/08/01 08:04:43;;;;;;;11.25;7.88;;;23.30;99.90;;;-144.05;61.04;125687.94;4975039;28;20034;-88
2022/08/01 08:07:09;;;;;;;12.35;7.20;;;23.50;99.90;;;-144.05;60.56;125687.94;4971019;28;20039;-88
2022/08/01 08:09:35;;;;;;;7.15;5.35;;;23.90;99.90;;;-144.05;57.01;125687.94;4960033;29;20528;-91
2022/08/01 08:12:01;;;;;;;6.45;5.07;;;24.40;99.90;;;-144.05;55.50;125687.94;4961032;29;20035;-89
2022/08/01 08:14:29;;;;;;;6.53;5.13;;;24.80;99.90;;;-144.05;54.65;125687.94;4978605;28;20463;-89
2022/08/01 08:16:55;;;;;;;5.72;4.68;;;24.90;99.90;;;-144.05;54.79;125687.94;4978485;28;20046;-87
2022/08/01 08:19:20;;;;;;;5.40;4.57;;;24.60;99.90;;;-144.05;57.27;125687.94;4977989;28;20028;-87
2022/08/01 08:21:46;;;;;;;6.57;4.45;;;23.90;99.90;;;-144.05;59.89;125687.94;4978646;28;20039;-87
2022/08/01 08:24:23;;;;;;;5.70;3.97;;;23.30;99.90;;;-144.05;62.30;125687.94;4978386;28;20031;-88
2022/08/01 08:26:56;;;;;;;5.85;4.18;;;23.00;99.90;;;-144.05;62.64;125687.94;4977956;28;20038;-88
2022/08/01 08:29:26;;;;;;;6.43;4.60;;;22.70;99.90;;;-144.05;62.61;125687.94;4978234;28;20051;-86
2022/08/01 08:31:57;;;;;;;6.90;4.85;;;22.80;99.90;;;-144.05;60.94;125687.94;4977838;28;20027;-89
2022/08/01 08:34:24;;;;;;;5.78;4.43;;;23.70;99.90;;;-144.05;56.87;125687.94;4977778;28;20050;-86
2022/08/01 08:36:51;;;;;;;5.72;3.72;;;24.20;99.90;;;-144.05;55.54;125687.94;4976995;28;20426;-91
2022/08/01 08:39:18;;;;;;;5.38;3.40;;;24.50;99.90;;;-144.05;55.17;125687.94;4977170;28;20039;-88
2022/08/01 08:41:44;;;;;;;3.47;2.83;;;24.60;99.90;;;-144.05;53.33;125687.94;4976448;28;20050;-90
2022/08/01 08:44:10;;;;;;;3.58;3.08;;;24.70;99.90;;;-144.05;53.68;125687.94;4975376;28;20131;-88
2022/08/01 08:47:06;;;;;;;4.07;2.95;;;25.00;99.90;;;-144.05;53.45;125687.94;4974635;28;20027;-88
2022/08/01 08:49:33;;;;;;;3.53;2.75;;;24.70;99.90;;;-144.05;54.15;125687.94;4955366;29;20039;-87
2022/08/01 08:52:43;;;;;;;3.28;2.58;;;24.40;99.90;;;-144.05;56.50;125687.94;4975803;28;20082;-87
2022/08/01 08:55:14;;;;;;;2.90;2.10;;;24.10;99.90;;;-144.05;56.44;125687.94;4959712;29;20122;-89
2022/08/01 08:57:45;;;;;;;4.07;2.28;;;23.70;99.90;;;-144.05;54.92;125687.94;4975956;28;20038;-88
2022/08/01 09:00:14;;;;;;;3.92;1.95;;;24.20;99.90;;;-144.05;54.05;125687.94;4960398;28;20035;-89
2022/08/01 09:02:46;;;;;;;2.17;1.90;;;24.40;99.90;;;-144.05;54.23;125687.94;4975786;28;20075;-86
2022/08/01 09:05:13;;;;;;;1.98;1.75;;;24.60;99.90;;;-144.05;52.30;125687.94;4974450;28;20489;-89
2022/08/01 09:07:39;;;;;;;3.33;1.75;;;25.40;99.90;;;-144.05;47.98;125687.94;4974859;28;20035;-88
2022/08/01 09:10:07;;;;;;;1.95;1.80;;;25.80;99.90;;;-144.05;49.46;125687.94;4975000;28;20031;-89
2022/08/01 09:12:36;;;;;;;2.22;2.03;;;26.00;99.90;;;-144.05;49.25;125687.94;4961405;28;20031;-89
2022/08/01 09:15:03;;;;;;;1.98;1.80;;;25.70;99.90;;;-144.05;50.58;125687.94;4976094;28;20031;-89
2022/08/01 09:17:41;;;;;;;2.25;2.03;;;25.60;99.90;;;-144.05;51.53;125687.94;4976480;28;20034;-87
2022/08/01 09:20:21;;;;;;;4.53;2.17;;;25.60;99.90;;;-144.05;51.42;125687.94;4976180;28;20027;-88
2022/08/01 09:22:47;;;;;;;2.63;2.08;;;25.20;99.90;;;-144.05;52.43;125687.94;4975160;28;20047;-88
2022/08/01 09:25:13;;;;;;;2.75;2.08;;;24.90;99.90;;;-144.05;53.30;125687.94;4960113;29;20073;-89
2022/08/01 09:27:40;;;;;;;3.67;2.22;;;24.90;99.90;;;-144.05;53.15;125687.94;4977196;28;20457;-89
2022/08/01 09:30:18;;;;;;;2.17;1.50;;;25.10;99.90;;;-144.05;49.47;125687.94;4976854;28;20103;-89
2022/08/01 09:33:02;;;;;;;1.40;1.17;;;25.60;99.90;;;-144.05;47.27;125687.94;4977893;28;20127;-90
2022/08/01 09:35:36;;;;;;;3.50;1.85;;;26.10;99.90;;;-144.05;47.75;125687.94;4980110;28;20035;-90
2022/08/01 09:38:21;;;;;;;5.75;1.50;;;26.10;99.90;;;-144.05;48.61;125687.94;4964160;28;20405;-88
2022/08/01 09:41:00;;;;;;;2.30;1.42;;;25.90;99.90;;;-144.05;48.89;125687.94;4980680;28;20094;-87
2022/08/01 09:43:30;;;;;;;1.52;1.40;;;25.90;99.90;;;-144.05;48.42;125687.94;4963301;29;20036;-88
2022/08/01 09:45:57;;;;;;;2.53;1.40;;;26.10;99.90;;;-144.05;46.91;125687.94;4978461;28;20031;-89
2022/08/01 09:48:27;;;;;;;3.95;1.00;;;26.70;99.90;;;-144.05;44.56;125687.94;4977745;28;20024;-90
2022/08/01 09:50:54;;;;;;;2.03;1.08;;;27.30;99.90;;;-144.05;44.01;125687.94;4961269;29;20039;-90
2022/08/01 09:53:20;;;;;;;1.27;0.77;;;27.20;99.90;;;-144.05;44.01;125687.94;4977891;28;20425;-89
2022/08/01 09:55:47;;;;;;;1.48;1.08;;;26.80;99.90;;;-144.05;44.45;125687.94;4961939;29;20087;-89
2022/08/01 09:58:14;;;;;;;1.17;0.90;;;26.20;99.90;;;-144.05;46.42;125687.94;4978553;28;20057;-88
2022/08/01 10:00:40;;;;;;;2.75;1.00;;;25.60;99.90;;;-144.05;47.37;125687.94;4979039;28;20078;-89
2022/08/01 10:03:29;;;;;;;1.08;1.00;;;25.10;99.90;;;-144.05;47.65;125687.94;4979516;28;20032;-88
2022/08/01 10:05:56;;;;;;;1.63;1.20;;;25.00;99.90;;;-144.05;47.88;125687.94;4979728;28;20030;-88
2022/08/01 10:08:25;;;;;;;1.00;0.80;;;24.90;99.90;;;-144.05;46.61;125687.94;4982343;28;20183;-88
2022/08/01 10:11:12;;;;;;;1.48;1.00;;;25.40;99.90;;;-144.05;44.61;125687.94;4978722;28;20043;-88
2022/08/01 10:13:40;;;;;;;1.95;1.35;;;26.20;99.90;;;-144.05;44.33;125687.94;4967576;28;20028;-88
2022/08/01 10:16:07;;;;;;;1.35;0.93;;;26.70;99.90;;;-144.05;43.27;125687.94;4946793;29;20033;-89
2022/08/01 10:18:40;;;;;;;1.38;1.08;;;27.10;99.90;;;-144.05;44.29;125687.94;4961942;28;20027;-89
2022/08/01 10:21:07;;;;;;;2.78;0.80;;;26.70;99.90;;;-144.05;44.84;125687.94;4963152;29;20031;-90
2022/08/01 10:23:38;;;;;;;1.40;0.82;;;26.00;99.90;;;-144.05;45.75;125687.94;4962673;29;20031;-89
2022/08/01 10:26:07;;;;;;;1.45;0.70;;;25.80;99.90;;;-144.05;44.08;125687.94;4963080;29;20031;-89
2022/08/01 10:28:38;;;;;;;0.75;0.75;;;26.20;99.90;;;-144.05;44.14;125687.94;4963251;28;20122;-90
2022/08/01 10:31:08;;;;;;;2.03;0.80;;;26.70;99.90;;;-144.05;43.95;125687.94;4964409;29;20031;-90
2022/08/01 10:33:36;;;;;;;1.83;0.88;;;27.40;99.90;;;-144.05;41.84;125687.94;4963526;29;20591;-87
2022/08/01 10:36:06;;;;;;;0.80;0.80;;;27.70;99.90;;;-144.05;41.08;125687.94;4965480;29;20043;-90
2022/08/01 10:38:35;;;;;;;1.02;0.93;;;28.00;99.90;;;-144.05;40.56;125687.94;4955329;29;20203;-88
2022/08/01 10:41:04;;;;;;;0.80;0.80;;;28.30;99.90;;;-144.05;40.41;125687.94;4974377;29;20023;-87
2022/08/01 10:43:30;;;;;;;2.00;0.70;;;28.40;99.90;;;-144.05;41.09;125687.94;4975628;28;20035;-88
2022/08/01 10:45:58;;;;;;;1.15;0.63;;;27.80;99.90;;;-144.05;43.91;125687.94;4975928;29;20031;-88
2022/08/01 10:49:02;;;;;;;1.45;0.60;;;26.90;99.90;;;-144.05;47.00;125687.94;4958992;29;20054;-88
2022/08/01 10:51:29;;;;;;;0.85;0.68;;;25.80;99.90;;;-144.05;49.37;125687.94;4964263;29;20034;-86
2022/08/01 10:53:57;;;;;;;1.83;0.90;;;24.80;99.90;;;-144.05;50.39;125687.94;4944308;29;20073;-87
2022/08/01 10:56:24;;;;;;;2.45;0.77;;;24.30;99.90;;;-144.05;51.42;125687.94;4943896;29;20024;-86
2022/08/01 10:59:02;;;;;;;0.50;0.50;;;24.00;99.90;;;-144.05;51.43;125687.94;4959148;28;20027;-87
2022/08/01 11:01:33;;;;;;;0.68;0.63;;;24.20;99.90;;;-144.05;50.34;125687.94;4943504;29;20527;-89
2022/08/01 11:04:14;;;;;;;0.57;0.57;;;24.30;99.90;;;-144.05;50.75;125687.94;4958753;29;20046;-87
2022/08/01 11:06:50;;;;;;;1.83;0.93;;;24.30;99.90;;;-144.05;50.92;125687.94;4959497;29;20035;-88
2022/08/01 11:09:38;;;;;;;2.88;1.08;;;24.10;99.90;;;-144.05;51.72;125687.94;4944097;29;20494;-89
2022/08/01 11:12:12;;;;;;;1.02;0.80;;;24.00;99.90;;;-144.05;51.79;125687.94;4960926;29;20190;-89
2022/08/01 11:15:00;;;;;;;1.77;0.93;;;23.80;99.90;;;-144.05;52.00;125687.94;4959497;29;20066;-88
2022/08/01 11:17:49;;;;;;;0.90;0.80;;;23.80;99.90;;;-144.05;51.07;125687.94;4944239;29;20047;-87
2022/08/01 11:20:34;;;;;;;1.33;0.77;;;24.00;99.90;;;-144.05;50.82;125687.94;4960119;29;20042;-89
2022/08/01 11:23:00;;;;;;;0.77;0.77;;;24.10;99.90;;;-144.05;48.89;125687.94;4945717;29;20385;-89
2022/08/01 11:25:35;;;;;;;0.93;0.73;;;24.80;99.90;;;-144.05;46.96;125687.94;4961547;29;20038;-88
2022/08/01 11:28:13;;;;;;;1.30;0.73;;;25.20;99.90;;;-144.05;47.00;125687.94;4964979;28;20054;-88
2022/08/01 11:30:49;;;;;;;1.25;0.57;;;25.60;99.90;;;-144.05;46.45;125687.94;4960493;29;20441;-89
2022/08/01 11:33:19;;;;;;;;;;;25.60;99.90;;;-144.05;46.73;125687.94;4963284;29;20117;-88
2022/08/01 11:36:23;;;;;;;0.30;0.30;;;25.70;99.90;;;-144.05;46.42;125687.94;4945212;29;19910;-89
2022/08/01 11:38:59;;;;;;;0.47;0.30;;;25.70;99.90;;;-144.05;46.55;125687.94;4961280;28;20106;-91
2022/08/01 11:41:34;;;;;;;0.90;0.50;;;25.90;99.90;;;-144.05;45.97;125687.94;4960197;29;20037;-90
2022/08/01 11:44:09;;;;;;;1.92;0.38;;;25.90;99.90;;;-144.05;46.83;125687.94;4961257;29;20027;-91
2022/08/01 11:47:09;;;;;;;2.90;0.60;;;25.20;99.90;;;-144.05;48.90;125687.94;4960593;29;20516;-89
2022/08/01 11:49:45;;;;;;;0.55;0.28;;;24.80;99.90;;;-144.05;49.56;125687.94;4961947;29;20050;-90
2022/08/01 11:52:34;;;;;;;0.73;0.30;;;24.40;99.90;;;-144.05;49.35;125687.94;4944834;29;20038;-89
2022/08/01 11:55:05;;;;;;;0.70;0.40;;;24.60;99.90;;;-144.05;48.30;125687.94;4963259;28;20401;-88
2022/08/01 11:57:34;;;;;;;2.05;0.32;;;24.50;99.90;;;-144.05;48.49;125687.94;4977510;28;20034;-85
2022/08/01 12:00:16;;;;;;;2.40;0.40;;;24.70;99.90;;;-144.05;48.10;125687.94;4976959;28;20221;-89
2022/08/01 12:02:45;;;;;;;1.10;0.30;;;25.20;99.90;;;-144.05;45.13;125687.94;4974680;29;20031;-90
2022/08/01 12:05:20;;;;;;;2.00;0.40;;;25.90;99.90;;;-144.05;44.20;125687.94;4967949;29;20035;-88